createdAt,value
2018-03-28T00:01:51.314Z,85.20
2018-03-28T00:04:20.519Z,85.12
2018-03-28T00:06:49.734Z,85.12
2018-03-28T00:09:18.941Z,85.22
2018-03-28T00:11:48.981Z,85.23
2018-03-28T00:14:18.938Z,85.37
2018-03-28T00:16:48.130Z,85.34
2018-03-28T00:19:17.332Z,85.39
2018-03-28T00:21:46.577Z,85.52
2018-03-28T00:24:16.531Z,85.55
2018-03-28T00:26:45.770Z,85.56
2018-03-28T00:29:14.967Z,85.60
2018-03-28T00:31:44.958Z,85.54
2018-03-28T00:34:14.180Z,85.56
2018-03-28T00:36:43.377Z,85.64
2018-03-28T00:39:12.610Z,85.62
2018-03-28T00:41:41.905Z,85.53
2018-03-28T00:44:11.074Z,85.51
2018-03-28T00:46:40.274Z,85.67
2018-03-28T00:49:09.491Z,86.02
2018-03-28T00:51:39.534Z,85.96
2018-03-28T00:54:08.828Z,86.25
2018-03-28T00:56:38.915Z,86.22
2018-03-28T00:59:08.924Z,86.42
2018-03-28T01:01:38.122Z,86.49
2018-03-28T01:04:08.094Z,86.61
2018-03-28T01:06:37.340Z,86.65
2018-03-28T01:09:07.325Z,86.90
2018-03-28T01:11:36.558Z,87.05
2018-03-28T01:14:06.518Z,87.43
2018-03-28T01:16:35.881Z,87.59
2018-03-28T01:19:05.874Z,87.55
2018-03-28T01:21:35.101Z,87.47
2018-03-28T01:24:04.375Z,87.66
2018-03-28T01:26:33.857Z,87.78
2018-03-28T01:29:03.054Z,87.92
2018-03-28T01:31:32.259Z,87.77
2018-03-28T01:34:01.473Z,87.69
2018-03-28T01:36:31.462Z,88.26
2018-03-28T01:39:00.679Z,88.20
2018-03-28T01:41:29.971Z,88.20
2018-03-28T01:43:59.169Z,88.35
2018-03-28T01:46:28.359Z,88.42
2018-03-28T01:48:57.613Z,88.65
2018-03-28T01:51:27.114Z,88.64
2018-03-28T01:53:56.301Z,88.67
2018-03-28T01:56:25.551Z,88.99
2018-03-28T01:58:54.927Z,88.90
2018-03-28T02:01:24.121Z,88.93
2018-03-28T02:03:53.550Z,89.01
2018-03-28T02:06:22.747Z,88.97
2018-03-28T02:08:51.956Z,88.86
2018-03-28T02:11:21.458Z,88.70
2018-03-28T02:13:50.642Z,88.62
2018-03-28T02:16:19.843Z,88.63
2018-03-28T02:18:49.046Z,88.60
2018-03-28T02:21:19.931Z,88.60
2018-03-28T02:23:49.170Z,88.70
2018-03-28T02:26:18.372Z,88.60
2018-03-28T02:28:47.608Z,88.64
2018-03-28T02:31:17.619Z,88.69
2018-03-28T02:33:47.619Z,88.53
2018-03-28T02:36:16.817Z,88.83
2018-03-28T02:38:46.072Z,88.82
2018-03-28T02:41:15.311Z,88.87
2018-03-28T02:43:45.550Z,88.89
2018-03-28T02:46:14.747Z,88.98
2018-03-28T02:48:44.742Z,89.10
2018-03-28T02:51:14.728Z,89.12
2018-03-28T02:53:43.978Z,89.46
2018-03-28T02:56:13.955Z,89.62
2018-03-28T02:58:43.143Z,89.84
2018-03-28T03:01:12.353Z,89.82
2018-03-28T03:03:41.579Z,90.14
2018-03-28T03:06:10.801Z,90.02
2018-03-28T03:08:40.016Z,89.99
2018-03-28T03:11:09.235Z,89.95
2018-03-28T03:13:38.414Z,89.99
2018-03-28T03:16:07.713Z,90.10
2018-03-28T03:18:36.923Z,90.26
2018-03-28T03:21:06.106Z,90.08
2018-03-28T03:23:35.331Z,90.01
2018-03-28T03:26:04.522Z,89.84
2018-03-28T03:28:33.723Z,89.92
2018-03-28T03:31:02.930Z,89.95
2018-03-28T03:33:32.134Z,90.00
2018-03-28T03:36:01.351Z,89.74
2018-03-28T03:38:31.330Z,89.94
2018-03-28T03:41:00.540Z,90.29
2018-03-28T03:43:29.772Z,90.11
2018-03-28T03:45:59.838Z,90.34
2018-03-28T03:48:29.064Z,90.22
2018-03-28T03:50:58.271Z,90.27
2018-03-28T03:53:27.495Z,90.21
2018-03-28T03:55:56.743Z,90.17
2018-03-28T03:58:25.998Z,90.23
2018-03-28T04:00:55.242Z,90.30
2018-03-28T04:03:24.442Z,90.46
2018-03-28T04:05:53.661Z,90.49
2018-03-28T04:08:23.779Z,90.41
2018-03-28T04:10:53.754Z,90.46
2018-03-28T04:13:23.267Z,90.45
2018-03-28T04:15:52.516Z,90.45
2018-03-28T04:18:21.747Z,90.52
2018-03-28T04:20:50.946Z,90.49
2018-03-28T04:23:20.219Z,90.60
2018-03-28T04:25:50.258Z,90.51
2018-03-28T04:28:19.434Z,90.64
2018-03-28T04:30:48.646Z,90.63
2018-03-28T04:33:17.952Z,90.82
2018-03-28T04:35:47.186Z,91.17
2018-03-28T04:38:16.599Z,90.93
2018-03-28T04:40:45.822Z,91.02
2018-03-28T04:43:15.787Z,91.01
2018-03-28T04:45:45.012Z,90.93
2018-03-28T04:48:14.244Z,90.96
2018-03-28T04:50:43.459Z,90.90
2018-03-28T04:53:12.654Z,90.80
2018-03-28T04:55:41.898Z,90.63
2018-03-28T04:58:11.878Z,90.47
2018-03-28T05:00:41.825Z,90.30
2018-03-28T05:03:11.046Z,90.59
2018-03-28T05:05:41.043Z,90.43
2018-03-28T05:08:10.257Z,90.36
2018-03-28T05:10:40.250Z,90.38
2018-03-28T05:13:09.447Z,90.39
2018-03-28T05:15:38.659Z,90.27
2018-03-28T05:18:08.651Z,89.89
2018-03-28T05:20:37.951Z,89.69
2018-03-28T05:23:07.174Z,89.56
2018-03-28T05:25:37.134Z,89.52
2018-03-28T05:28:06.371Z,89.60
2018-03-28T05:30:35.851Z,89.66
2018-03-28T05:33:05.830Z,89.74
2018-03-28T05:35:35.092Z,89.88
2018-03-28T05:38:05.068Z,90.00
2018-03-28T05:40:35.035Z,90.04
2018-03-28T05:43:05.011Z,89.97
2018-03-28T05:45:34.213Z,90.15
2018-03-28T05:48:03.438Z,90.64
2018-03-28T05:50:33.410Z,90.83
2018-03-28T05:53:02.599Z,91.11
2018-03-28T05:55:31.919Z,91.02
2018-03-28T05:58:01.124Z,90.99
2018-03-28T06:00:30.315Z,90.88
2018-03-28T06:02:59.535Z,90.92
2018-03-28T06:05:28.763Z,90.88
2018-03-28T06:07:58.436Z,90.98
2018-03-28T06:10:28.441Z,90.88
2018-03-28T06:12:57.651Z,91.07
2018-03-28T06:15:26.878Z,91.01
2018-03-28T06:17:57.081Z,91.15
2018-03-28T06:20:27.062Z,91.02
2018-03-28T06:22:56.253Z,90.99
2018-03-28T06:25:25.493Z,90.86
2018-03-28T06:27:54.657Z,90.75
2018-03-28T06:30:23.867Z,90.78
2018-03-28T06:32:53.065Z,90.67
2018-03-28T06:35:22.416Z,90.70
2018-03-28T06:37:51.638Z,90.65
2018-03-28T06:40:20.920Z,90.59
2018-03-28T06:42:50.857Z,90.40
2018-03-28T06:45:20.879Z,90.62
2018-03-28T06:47:50.066Z,90.89
2018-03-28T06:56:32.207Z,90.69
2018-03-28T06:59:01.429Z,91.08
2018-03-28T07:01:30.711Z,91.03
2018-03-28T07:03:59.953Z,91.12
2018-03-28T07:06:29.953Z,91.37
2018-03-28T07:08:59.937Z,91.86
2018-03-28T07:11:29.168Z,92.26
2018-03-28T07:13:59.160Z,92.47
2018-03-28T07:16:28.383Z,92.69
2018-03-28T07:18:57.587Z,92.75
2018-03-28T07:21:27.619Z,92.80
2018-03-28T07:23:57.590Z,92.91
2018-03-28T07:26:26.808Z,92.83
2018-03-28T07:28:56.793Z,92.70
2018-03-28T07:31:26.045Z,92.55
2018-03-28T07:33:55.261Z,91.84
2018-03-28T07:36:24.479Z,91.75
2018-03-28T07:38:53.717Z,91.41
2018-03-28T07:41:23.764Z,90.88
2018-03-28T07:43:53.024Z,90.95
2018-03-28T07:46:23.107Z,90.93
2018-03-28T07:48:52.356Z,90.70
2018-03-28T07:51:22.339Z,90.25
2018-03-28T07:53:51.568Z,90.19
2018-03-28T07:56:21.542Z,90.25
2018-03-28T07:58:50.775Z,90.25
2018-03-28T08:01:20.764Z,90.25
2018-03-28T08:03:50.182Z,89.94
2018-03-28T08:06:20.186Z,89.59
2018-03-28T08:08:49.399Z,89.18
2018-03-28T08:11:18.627Z,88.56
2018-03-28T08:13:47.840Z,88.33
2018-03-28T08:16:17.050Z,88.26
2018-03-28T08:18:46.333Z,87.15
2018-03-28T08:21:15.538Z,87.41
2018-03-28T08:23:44.745Z,87.54
2018-03-28T08:26:13.948Z,87.89
2018-03-28T08:28:43.207Z,88.26
2018-03-28T08:31:12.420Z,87.13
2018-03-28T08:33:41.644Z,86.32
2018-03-28T08:36:10.878Z,85.89
2018-03-28T08:38:40.858Z,86.57
2018-03-28T08:41:10.147Z,86.25
2018-03-28T08:43:39.341Z,86.62
2018-03-28T08:46:08.652Z,85.37
2018-03-28T08:48:37.859Z,85.94
2018-03-28T08:51:07.099Z,84.94
2018-03-28T08:53:36.339Z,85.68
2018-03-28T08:56:05.639Z,84.65
2018-03-28T08:58:34.825Z,84.87
2018-03-28T09:01:04.075Z,84.26
2018-03-28T09:03:33.325Z,84.18
2018-03-28T09:06:02.554Z,83.61
2018-03-28T09:08:31.761Z,83.67
2018-03-28T09:11:01.017Z,83.59
2018-03-28T09:13:31.002Z,83.04
2018-03-28T09:16:00.269Z,83.09
2018-03-28T09:18:30.291Z,82.90
2018-03-28T09:20:59.541Z,82.96
2018-03-28T09:23:28.745Z,82.53
2018-03-28T09:25:58.104Z,82.42
2018-03-28T09:28:27.351Z,81.67
2018-03-28T09:30:56.550Z,81.27
2018-03-28T09:33:26.551Z,81.29
2018-03-28T09:35:55.777Z,81.01
2018-03-28T09:38:25.062Z,80.16
2018-03-28T09:40:55.297Z,80.24
2018-03-28T09:43:24.572Z,79.50
2018-03-28T09:45:54.518Z,79.92
2018-03-28T09:48:23.767Z,78.91
2018-03-28T09:50:53.044Z,79.18
2018-03-28T09:53:22.375Z,78.53
2018-03-28T09:55:51.641Z,78.05
2018-03-28T09:58:20.847Z,77.79
2018-03-28T10:14:13.470Z,74.89
2018-03-28T10:16:42.688Z,75.20
2018-03-28T10:19:12.690Z,75.11
2018-03-28T10:21:42.693Z,74.75
2018-03-28T10:24:11.911Z,74.56
2018-03-28T10:26:41.140Z,73.92
2018-03-28T10:29:10.380Z,73.12
2018-03-28T10:31:39.611Z,71.72
2018-03-28T10:34:08.900Z,73.79
2018-03-28T10:36:38.865Z,73.41
2018-03-28T10:39:08.097Z,74.09
2018-03-28T10:44:44.619Z,73.12
2018-03-28T10:47:13.843Z,73.38
2018-03-28T10:49:43.170Z,73.25
2018-03-28T10:52:12.387Z,74.01
2018-03-28T10:54:42.389Z,74.49
2018-03-28T10:57:12.420Z,74.75
2018-03-28T10:59:42.625Z,75.79
2018-03-28T11:02:11.842Z,76.57
2018-03-28T11:04:41.871Z,77.52
2018-03-28T11:07:11.861Z,78.40
2018-03-28T11:09:41.064Z,79.40
2018-03-28T11:12:10.315Z,80.05
2018-03-28T11:14:39.563Z,80.18
2018-03-28T11:17:09.562Z,80.14
2018-03-28T11:19:38.784Z,81.13
2018-03-28T11:22:08.809Z,81.54
2018-03-28T11:24:38.775Z,81.11
2018-03-28T11:27:08.003Z,81.36
2018-03-28T11:29:38.052Z,81.03
2018-03-28T11:32:07.290Z,80.68
2018-03-28T11:34:36.618Z,80.84
2018-03-28T11:37:05.866Z,80.74
2018-03-28T11:39:35.077Z,80.68
2018-03-28T11:42:04.292Z,80.16
2018-03-28T11:44:34.341Z,80.09
2018-03-28T11:47:04.602Z,81.04
2018-03-28T11:49:33.797Z,81.51
2018-03-28T11:52:03.092Z,82.26
2018-03-28T11:54:33.089Z,82.36
2018-03-28T11:57:02.468Z,82.42
2018-03-28T11:59:32.546Z,82.15
2018-03-28T12:02:01.752Z,82.02
2018-03-28T12:04:31.005Z,82.20
2018-03-28T12:07:01.003Z,82.70
2018-03-28T12:09:30.994Z,82.41
2018-03-28T12:12:00.222Z,82.15
2018-03-28T12:14:29.467Z,81.42
2018-03-28T12:16:58.667Z,81.45
2018-03-28T12:19:27.894Z,81.66
2018-03-28T12:21:57.134Z,80.53
2018-03-28T12:24:26.354Z,79.68
2018-03-28T12:26:55.618Z,79.83
2018-03-28T12:29:25.625Z,79.72
2018-03-28T12:31:54.812Z,78.43
2018-03-28T12:34:24.818Z,79.20
2018-03-28T12:36:54.028Z,78.14
2018-03-28T12:39:24.032Z,78.35
2018-03-28T12:41:53.229Z,78.24
2018-03-28T12:44:22.450Z,77.96
2018-03-28T12:46:51.658Z,78.97
2018-03-28T12:49:21.750Z,79.20
2018-03-28T12:51:52.089Z,80.01
2018-03-28T12:54:22.055Z,79.78
2018-03-28T12:56:51.291Z,79.82
2018-03-28T12:59:21.279Z,79.85
2018-03-28T13:01:50.482Z,80.01
2018-03-28T13:04:19.743Z,79.46
2018-03-28T13:06:48.970Z,79.81
2018-03-28T13:09:18.198Z,79.30
2018-03-28T13:11:48.204Z,79.94
2018-03-28T13:14:17.445Z,80.94
2018-03-28T13:16:46.687Z,80.88
2018-03-28T13:19:15.972Z,81.18
2018-03-28T13:24:49.930Z,82.08
2018-03-28T13:27:19.162Z,82.38
2018-03-28T13:29:48.378Z,82.96
2018-03-28T13:32:17.637Z,83.30
2018-03-28T13:34:47.618Z,84.14
2018-03-28T13:37:16.874Z,84.61
2018-03-28T13:39:46.124Z,84.71
2018-03-28T13:42:15.389Z,84.97
2018-03-28T13:44:44.600Z,85.31
2018-03-28T13:47:13.840Z,85.30
2018-03-28T13:49:43.935Z,85.21
2018-03-28T13:52:13.160Z,85.18
2018-03-28T13:54:43.167Z,85.03
2018-03-28T13:57:13.159Z,85.12
2018-03-28T13:59:43.176Z,85.12
2018-03-28T14:02:12.390Z,85.53
2018-03-28T14:04:41.662Z,85.57
2018-03-28T14:07:10.900Z,85.63
2018-03-28T14:09:40.166Z,85.51
2018-03-28T14:12:09.363Z,85.43
2018-03-28T14:14:38.594Z,85.51
2018-03-28T14:17:08.570Z,85.55
2018-03-28T14:19:37.832Z,85.74
2018-03-28T14:22:07.063Z,85.80
2018-03-28T14:24:36.255Z,85.87
2018-03-28T14:27:05.851Z,85.92
2018-03-28T14:29:35.898Z,86.10
2018-03-28T14:35:08.732Z,86.69
2018-03-28T14:37:38.723Z,86.71
2018-03-28T14:40:07.926Z,87.07
2018-03-28T14:42:37.149Z,87.27
2018-03-28T14:45:07.126Z,87.43
2018-03-28T14:47:36.350Z,86.97
2018-03-28T14:50:05.529Z,86.21
2018-03-28T14:52:34.758Z,86.24
2018-03-28T14:55:04.011Z,85.98
2018-03-28T14:57:33.326Z,86.24
2018-03-28T15:00:02.569Z,86.65
2018-03-28T15:02:31.827Z,87.18
2018-03-28T15:05:01.076Z,87.45
2018-03-28T15:07:30.298Z,85.96
2018-03-28T15:09:59.485Z,85.95
2018-03-28T15:12:28.918Z,86.01
2018-03-28T15:14:58.119Z,86.31
2018-03-28T15:17:27.375Z,86.68
2018-03-28T15:19:56.569Z,86.06
2018-03-28T15:22:25.872Z,85.99
2018-03-28T15:24:55.063Z,85.44
2018-03-28T15:27:24.273Z,85.69
2018-03-28T15:29:53.478Z,86.19
2018-03-28T15:32:22.699Z,86.64
2018-03-28T15:34:51.889Z,86.59
2018-03-28T15:37:21.116Z,86.84
2018-03-28T15:39:50.299Z,86.59
2018-03-28T15:42:19.675Z,87.05
2018-03-28T15:44:48.883Z,86.72
2018-03-28T15:47:18.116Z,86.39
2018-03-28T15:49:48.205Z,86.45
2018-03-28T15:52:17.380Z,86.79
2018-03-28T15:54:46.647Z,87.10
2018-03-28T15:57:15.810Z,86.92
2018-03-28T15:59:45.294Z,86.67
2018-03-28T16:02:14.508Z,87.02
2018-03-28T16:04:44.470Z,87.51
2018-03-28T16:07:13.655Z,87.68
2018-03-28T16:09:42.875Z,87.08
2018-03-28T16:12:12.080Z,86.70
2018-03-28T16:14:41.278Z,86.83
2018-03-28T16:17:10.533Z,86.65
2018-03-28T16:19:39.740Z,86.49
2018-03-28T16:22:09.028Z,86.90
2018-03-28T16:24:38.291Z,86.91
2018-03-28T16:27:07.481Z,86.25
2018-03-28T16:29:36.724Z,86.14
2018-03-28T16:32:06.793Z,86.06
2018-03-28T16:34:40.817Z,86.59
2018-03-28T16:37:10.036Z,86.57
2018-03-28T16:39:40.011Z,86.27
2018-03-28T16:42:09.209Z,86.26
2018-03-28T16:44:38.398Z,86.20
2018-03-28T16:47:07.612Z,86.48
2018-03-28T16:49:36.861Z,86.31
2018-03-28T16:52:06.090Z,85.83
2018-03-28T16:54:36.527Z,85.91
2018-03-28T16:57:05.732Z,85.96
2018-03-28T16:59:34.970Z,86.29
2018-03-28T17:02:04.966Z,86.45
2018-03-28T17:04:34.209Z,86.36
2018-03-28T17:07:03.426Z,86.81
2018-03-28T17:09:32.764Z,87.21
2018-03-28T17:12:01.980Z,87.07
2018-03-28T17:14:31.985Z,87.33
2018-03-28T17:17:01.237Z,87.29
2018-03-28T17:19:30.451Z,86.79
2018-03-28T17:21:59.640Z,86.49
2018-03-28T17:24:28.919Z,86.20
2018-03-28T17:26:58.094Z,86.46
2018-03-28T17:29:27.335Z,86.69
2018-03-28T17:31:56.527Z,87.03
2018-03-28T17:34:25.730Z,87.20
2018-03-28T17:36:54.948Z,87.17
2018-03-28T17:39:24.160Z,87.27
2018-03-28T17:41:54.164Z,87.50
2018-03-28T17:44:24.241Z,87.80
2018-03-28T17:46:53.436Z,88.03
2018-03-28T17:49:22.627Z,88.40
2018-03-28T17:51:51.851Z,88.73
2018-03-28T17:54:21.052Z,89.16
2018-03-28T17:56:50.274Z,89.50
2018-03-28T17:59:19.467Z,89.85
2018-03-28T18:01:49.511Z,89.66
2018-03-28T18:04:18.722Z,90.41
2018-03-28T18:06:47.960Z,90.45
2018-03-28T18:09:17.413Z,90.88
2018-03-28T18:11:47.386Z,90.84
2018-03-28T18:14:16.578Z,91.12
2018-03-28T18:16:45.816Z,91.52
2018-03-28T18:19:14.988Z,91.65
2018-03-28T18:21:44.964Z,91.82
2018-03-28T18:24:14.179Z,91.77
2018-03-28T18:26:43.410Z,91.71
2018-03-28T18:29:13.418Z,91.75
2018-03-28T18:31:42.671Z,91.87
2018-03-28T18:34:11.898Z,91.83
2018-03-28T18:36:41.144Z,91.85
2018-03-28T18:39:10.354Z,91.74
2018-03-28T18:41:40.345Z,92.51
2018-03-28T18:44:09.539Z,92.65
2018-03-28T18:46:39.520Z,93.03
2018-03-28T18:49:08.742Z,91.57
2018-03-28T18:51:38.731Z,91.66
2018-03-28T18:54:07.926Z,92.00
2018-03-28T18:56:37.527Z,91.14
2018-03-28T18:59:06.905Z,91.07
2018-03-28T19:01:36.818Z,91.71
2018-03-28T19:04:06.024Z,92.21
2018-03-28T19:06:35.262Z,92.91
2018-03-28T19:09:04.479Z,93.27
2018-03-28T19:11:33.803Z,93.48
2018-03-28T19:14:03.254Z,93.77
2018-03-28T19:16:32.460Z,93.71
2018-03-28T19:19:03.356Z,93.52
2018-03-28T19:21:32.575Z,93.47
2018-03-28T19:24:01.793Z,93.36
2018-03-28T19:26:31.027Z,93.06
2018-03-28T19:29:00.263Z,92.74
2018-03-28T19:31:29.480Z,92.67
2018-03-28T19:33:58.777Z,92.90
2018-03-28T19:36:27.968Z,93.00
2018-03-28T19:51:57.220Z,92.92
2018-03-28T19:54:26.466Z,91.69
2018-03-28T19:56:55.684Z,90.90
2018-03-28T19:59:25.668Z,90.37
2018-03-28T20:01:54.931Z,89.90
2018-03-28T20:18:23.146Z,88.98
2018-03-28T20:20:53.117Z,88.74
2018-03-28T20:23:22.418Z,89.76
2018-03-28T20:25:51.637Z,90.08
2018-03-28T20:28:20.835Z,91.16
2018-03-28T20:30:50.075Z,90.92
2018-03-28T20:33:19.316Z,90.81
2018-03-28T20:35:48.531Z,90.24
2018-03-28T20:38:17.795Z,90.00
2018-03-28T20:40:47.012Z,91.05
2018-03-28T20:43:16.237Z,90.47
2018-03-28T20:45:45.447Z,90.68
2018-03-28T20:48:15.411Z,90.56
2018-03-28T20:50:44.624Z,91.13
2018-03-28T20:53:13.861Z,91.37
2018-03-28T20:55:43.851Z,91.48
2018-03-28T20:58:13.142Z,92.12
2018-03-28T21:00:42.408Z,91.85
2018-03-28T21:03:11.634Z,91.43
2018-03-28T21:05:40.849Z,91.95
2018-03-28T21:08:10.048Z,91.77
2018-03-28T21:10:39.348Z,91.94
2018-03-28T21:13:08.658Z,91.06
2018-03-28T21:15:38.630Z,91.10
2018-03-28T21:18:07.884Z,90.47
2018-03-28T21:20:37.842Z,91.04
2018-03-28T21:23:07.108Z,91.35
2018-03-28T21:25:37.092Z,89.56
2018-03-28T21:28:06.313Z,89.02
2018-03-28T21:30:36.525Z,89.09
2018-03-28T21:33:06.524Z,89.17
2018-03-28T21:35:35.739Z,88.21
2018-03-28T21:38:05.725Z,88.09
2018-03-28T21:40:34.947Z,88.59
2018-03-28T21:43:04.960Z,87.72
2018-03-28T21:45:34.964Z,89.17
2018-03-28T21:48:04.209Z,88.56
2018-03-28T21:50:33.603Z,88.32
2018-03-28T21:53:03.572Z,87.18
2018-03-28T21:55:32.819Z,87.70
2018-03-28T21:58:02.039Z,88.62
2018-03-28T22:00:31.251Z,88.39
2018-03-28T22:03:00.454Z,88.30
2018-03-28T22:05:30.436Z,88.62
2018-03-28T22:07:59.632Z,88.28
2018-03-28T22:10:28.845Z,88.72
2018-03-28T22:12:58.091Z,88.44
2018-03-28T22:15:28.093Z,87.71
2018-03-28T22:17:57.593Z,87.43
2018-03-28T22:20:26.838Z,86.88
2018-03-28T22:22:56.809Z,87.28
2018-03-28T22:25:26.056Z,87.91
2018-03-28T22:27:55.295Z,87.94
2018-03-28T22:30:25.258Z,88.97
2018-03-28T22:32:54.499Z,88.93
2018-03-28T22:35:23.701Z,89.27
2018-03-28T22:37:52.937Z,89.14
2018-03-28T22:40:22.974Z,89.22
2018-03-28T22:42:52.242Z,88.44
2018-03-28T22:45:21.449Z,88.68
2018-03-28T22:47:50.724Z,87.82
2018-03-28T22:50:19.976Z,88.50
2018-03-28T22:52:49.219Z,89.16
2018-03-28T22:55:18.447Z,88.88
2018-03-28T22:57:48.478Z,89.00
2018-03-28T23:00:18.599Z,88.57
2018-03-28T23:02:48.082Z,88.10
2018-03-28T23:05:18.082Z,88.02
2018-03-28T23:07:47.333Z,88.60
2018-03-28T23:10:16.554Z,88.43
2018-03-28T23:12:45.806Z,88.17
2018-03-28T23:15:15.072Z,87.90
2018-03-28T23:17:44.226Z,87.52
2018-03-28T23:20:13.479Z,87.91
2018-03-28T23:22:42.658Z,86.67
2018-03-28T23:25:11.897Z,86.44
2018-03-28T23:27:41.917Z,87.46
2018-03-28T23:30:11.123Z,86.83
2018-03-28T23:32:40.333Z,87.86
2018-03-28T23:35:09.569Z,86.64
2018-03-28T23:37:38.759Z,86.86
2018-03-28T23:40:07.975Z,85.76
2018-03-28T23:42:37.942Z,86.22
2018-03-28T23:45:07.429Z,86.82
2018-03-28T23:47:36.621Z,86.15
2018-03-28T23:50:05.870Z,87.75
2018-03-28T23:52:35.045Z,87.73
2018-03-28T23:55:04.335Z,86.34
2018-03-28T23:57:33.525Z,86.33
